CheckWX is a tool to help pilots better visualize weather data.  It is not intended as a substitute for an official pre-flight weather briefing.

17:22:29 UTC

EGPH TAF
Edinburgh Airport
Edinburgh, United Kingdom
TAF EGPH 131659Z 1318/1418 26010KT 9999 SCT030

Jul-13@
18:00 UTC

Jul-13 @ 18:00 UTC

Jul-14@
18:00 UTC

Jul-14 @ 18:00 UTC

TAF EGPH 131659Z 1318/1418 26010KT 9999 SCT030
Wind
  • 260° at 10 KTS
Cloud Levels
  • Scattered at 3,000' AGL